sensor_id;sensor_type;location;lat;lon;timestamp;pressure;altitude;pressure_sealevel;temperature;humidity
32789;BME280;19141;48.980;8.410;2022-09-09T04:16:11;99815.38;;;14.56;100.00
32789;BME280;19141;48.980;8.410;2022-09-09T04:18:37;99816.81;;;14.59;100.00
32789;BME280;19141;48.980;8.410;2022-09-09T04:21:04;99815.16;;;14.58;100.00
32789;BME280;19141;48.980;8.410;2022-09-09T04:23:31;99822.78;;;14.61;100.00
32789;BME280;19141;48.980;8.410;2022-09-09T04:26:00;99828.34;;;14.59;100.00
32789;BME280;19141;48.980;8.410;2022-09-09T04:28:29;99830.19;;;14.59;100.00
32789;BME280;19141;48.980;8.410;2022-09-09T04:30:56;99824.44;;;14.62;100.00
32789;BME280;19141;48.980;8.410;2022-09-09T04:33:23;99827.72;;;14.64;100.00
32789;BME280;19141;48.980;8.410;2022-09-09T04:35:52;99824.81;;;14.65;100.00
32789;BME280;19141;48.980;8.410;2022-09-09T04:38:21;99840.72;;;14.67;100.00
32789;BME280;19141;48.980;8.410;2022-09-09T04:40:50;99833.53;;;14.61;100.00
32789;BME280;19141;48.980;8.410;2022-09-09T04:43:17;99837.03;;;14.61;100.00
32789;BME280;19141;48.980;8.410;2022-09-09T04:45:43;99845.88;;;14.62;100.00
32789;BME280;19141;48.980;8.410;2022-09-09T04:48:12;99853.50;;;14.65;100.00
32789;BME280;19141;48.980;8.410;2022-09-09T04:50:37;99849.38;;;14.62;100.00
32789;BME280;19141;48.980;8.410;2022-09-09T04:53:04;99847.50;;;14.70;100.00
32789;BME280;19141;48.980;8.410;2022-09-09T04:55:35;99847.06;;;14.73;100.00
32789;BME280;19141;48.980;8.410;2022-09-09T04:58:08;99846.25;;;14.72;100.00
32789;BME280;19141;48.980;8.410;2022-09-09T05:00:37;99849.34;;;14.76;100.00
32789;BME280;19141;48.980;8.410;2022-09-09T05:03:06;99856.97;;;14.79;100.00
32789;BME280;19141;48.980;8.410;2022-09-09T05:05:34;99856.56;;;14.82;100.00
32789;BME280;19141;48.980;8.410;2022-09-09T05:08:05;99851.59;;;14.79;100.00
32789;BME280;19141;48.980;8.410;2022-09-09T05:10:32;99847.69;;;14.81;100.00
32789;BME280;19141;48.980;8.410;2022-09-09T05:12:58;99854.91;;;14.87;100.00
32789;BME280;19141;48.980;8.410;2022-09-09T05:15:26;99859.44;;;14.87;100.00
32789;BME280;19141;48.980;8.410;2022-09-09T05:17:52;99862.72;;;14.96;100.00
32789;BME280;19141;48.980;8.410;2022-09-09T05:20:20;99868.28;;;15.01;100.00
32789;BME280;19141;48.980;8.410;2022-09-09T05:22:47;99866.41;;;15.01;100.00
32789;BME280;19141;48.980;8.410;2022-09-09T05:25:13;99863.50;;;15.03;100.00
32789;BME280;19141;48.980;8.410;2022-09-09T05:27:39;99868.66;;;15.04;100.00
32789;BME280;19141;48.980;8.410;2022-09-09T05:30:05;99870.28;;;15.05;100.00
32789;BME280;19141;48.980;8.410;2022-09-09T05:32:31;99875.03;;;15.10;100.00
32789;BME280;19141;48.980;8.410;2022-09-09T05:34:58;99879.38;;;15.11;100.00
32789;BME280;19141;48.980;8.410;2022-09-09T05:37:24;99878.31;;;15.12;100.00
32789;BME280;19141;48.980;8.410;2022-09-09T05:39:49;99875.00;;;15.16;100.00
32789;BME280;19141;48.980;8.410;2022-09-09T05:42:16;99880.97;;;15.18;100.00
32789;BME280;19141;48.980;8.410;2022-09-09T05:44:43;99877.88;;;15.22;100.00
32789;BME280;19141;48.980;8.410;2022-09-09T05:47:10;99882.63;;;15.26;100.00
32789;BME280;19141;48.980;8.410;2022-09-09T05:49:35;99885.31;;;15.26;100.00
32789;BME280;19141;48.980;8.410;2022-09-09T05:52:01;99884.06;;;15.29;100.00
32789;BME280;19141;48.980;8.410;2022-09-09T05:54:29;99875.38;;;15.33;100.00
32789;BME280;19141;48.980;8.410;2022-09-09T05:56:55;99874.53;;;15.39;100.00
32789;BME280;19141;48.980;8.410;2022-09-09T05:59:21;99882.31;;;15.47;100.00
32789;BME280;19141;48.980;8.410;2022-09-09T06:01:50;99878.34;;;15.57;100.00
32789;BME280;19141;48.980;8.410;2022-09-09T06:04:24;99889.25;;;15.68;100.00
32789;BME280;19141;48.980;8.410;2022-09-09T06:06:50;99886.13;;;15.78;100.00
32789;BME280;19141;48.980;8.410;2022-09-09T06:09:18;99887.50;;;15.87;100.00
32789;BME280;19141;48.980;8.410;2022-09-09T06:11:44;99895.25;;;16.02;100.00
32789;BME280;19141;48.980;8.410;2022-09-09T06:14:10;99889.56;;;16.17;99.53
32789;BME280;19141;48.980;8.410;2022-09-09T06:16:37;99893.47;;;16.21;98.99
32789;BME280;19141;48.980;8.410;2022-09-09T06:19:05;99885.13;;;16.29;96.27
32789;BME280;19141;48.980;8.410;2022-09-09T06:21:34;99886.13;;;16.35;97.52
32789;BME280;19141;48.980;8.410;2022-09-09T06:24:04;99883.00;;;16.38;97.04
32789;BME280;19141;48.980;8.410;2022-09-09T06:26:39;99885.00;;;16.42;97.32
32789;BME280;19141;48.980;8.410;2022-09-09T06:29:11;99880.84;;;16.46;97.34
32789;BME280;19141;48.980;8.410;2022-09-09T06:31:37;99882.06;;;16.50;97.30
32789;BME280;19141;48.980;8.410;2022-09-09T06:34:10;99880.56;;;16.54;95.25
32789;BME280;19141;48.980;8.410;2022-09-09T06:36:39;99885.69;;;16.63;95.20
32789;BME280;19141;48.980;8.410;2022-09-09T06:39:06;99892.66;;;16.70;94.33
32789;BME280;19141;48.980;8.410;2022-09-09T06:41:33;99888.28;;;16.76;93.97
32789;BME280;19141;48.980;8.410;2022-09-09T06:44:00;99878.69;;;16.80;93.09
32789;BME280;19141;48.980;8.410;2022-09-09T06:46:35;99883.59;;;16.90;94.52
32789;BME280;19141;48.980;8.410;2022-09-09T06:49:01;99884.34;;;16.97;93.04
32789;BME280;19141;48.980;8.410;2022-09-09T06:51:33;99879.94;;;17.02;91.10
32789;BME280;19141;48.980;8.410;2022-09-09T06:54:01;99882.31;;;17.11;90.33
32789;BME280;19141;48.980;8.410;2022-09-09T06:56:29;99886.19;;;17.15;91.53
32789;BME280;19141;48.980;8.410;2022-09-09T06:58:59;99885.75;;;17.18;92.04
32789;BME280;19141;48.980;8.410;2022-09-09T07:01:32;99896.03;;;17.21;93.52
32789;BME280;19141;48.980;8.410;2022-09-09T07:04:02;99891.28;;;17.23;93.39
32789;BME280;19141;48.980;8.410;2022-09-09T07:06:44;99894.13;;;17.28;92.31
32789;BME280;19141;48.980;8.410;2022-09-09T07:09:15;99890.31;;;17.35;91.62
32789;BME280;19141;48.980;8.410;2022-09-09T07:11:45;99890.81;;;17.44;90.92
32789;BME280;19141;48.980;8.410;2022-09-09T07:14:12;99886.28;;;17.56;91.08
32789;BME280;19141;48.980;8.410;2022-09-09T07:16:43;99883.88;;;17.67;93.64
32789;BME280;19141;48.980;8.410;2022-09-09T07:19:10;99879.03;;;17.75;92.26
32789;BME280;19141;48.980;8.410;2022-09-09T07:21:36;99882.88;;;17.79;92.96
32789;BME280;19141;48.980;8.410;2022-09-09T07:24:02;99898.97;;;17.86;93.40
32789;BME280;19141;48.980;8.410;2022-09-09T07:26:30;99893.38;;;17.87;93.65
32789;BME280;19141;48.980;8.410;2022-09-09T07:28:58;99897.47;;;17.90;95.31
32789;BME280;19141;48.980;8.410;2022-09-09T07:31:27;99898.66;;;17.94;91.24
32789;BME280;19141;48.980;8.410;2022-09-09T07:33:56;99903.56;;;17.97;90.50
32789;BME280;19141;48.980;8.410;2022-09-09T07:36:23;99906.84;;;17.99;90.20
32789;BME280;19141;48.980;8.410;2022-09-09T07:38:54;99895.63;;;18.02;89.13
32789;BME280;19141;48.980;8.410;2022-09-09T07:41:43;99893.16;;;18.01;87.73
32789;BME280;19141;48.980;8.410;2022-09-09T07:44:19;99899.28;;;18.08;88.92
32789;BME280;19141;48.980;8.410;2022-09-09T07:46:49;99897.97;;;18.10;87.72
32789;BME280;19141;48.980;8.410;2022-09-09T07:49:19;99898.25;;;18.21;85.56
32789;BME280;19141;48.980;8.410;2022-09-09T07:51:46;99906.59;;;18.31;86.66
32789;BME280;19141;48.980;8.410;2022-09-09T07:54:15;99908.94;;;18.27;87.86
32789;BME280;19141;48.980;8.410;2022-09-09T07:56:43;99906.47;;;18.26;85.89
32789;BME280;19141;48.980;8.410;2022-09-09T07:59:10;99898.88;;;18.34;85.89
32789;BME280;19141;48.980;8.410;2022-09-09T08:01:48;99904.28;;;18.46;85.85
32789;BME280;19141;48.980;8.410;2022-09-09T08:04:18;99897.03;;;18.58;85.73
32789;BME280;19141;48.980;8.410;2022-09-09T08:06:57;99905.38;;;18.68;84.93
32789;BME280;19141;48.980;8.410;2022-09-09T08:09:25;99912.97;;;18.83;83.18
32789;BME280;19141;48.980;8.410;2022-09-09T08:11:53;99914.41;;;18.97;82.52
32789;BME280;19141;48.980;8.410;2022-09-09T08:14:18;99909.69;;;19.05;81.41
32789;BME280;19141;48.980;8.410;2022-09-09T08:16:47;99918.13;;;19.20;81.32
32789;BME280;19141;48.980;8.410;2022-09-09T08:19:16;99911.19;;;19.24;79.55
32789;BME280;19141;48.980;8.410;2022-09-09T08:21:44;99919.63;;;19.28;80.01
32789;BME280;19141;48.980;8.410;2022-09-09T08:24:11;99920.56;;;19.33;78.90
32789;BME280;19141;48.980;8.410;2022-09-09T08:26:44;99920.81;;;19.32;80.58
32789;BME280;19141;48.980;8.410;2022-09-09T08:29:12;99927.03;;;19.32;78.81
32789;BME280;19141;48.980;8.410;2022-09-09T08:31:49;99944.28;;;19.19;81.41
32789;BME280;19141;48.980;8.410;2022-09-09T08:34:15;99950.63;;;18.90;84.39
32789;BME280;19141;48.980;8.410;2022-09-09T08:36:43;99945.88;;;18.50;86.39
32789;BME280;19141;48.980;8.410;2022-09-09T08:39:13;99939.84;;;18.13;87.58
32789;BME280;19141;48.980;8.410;2022-09-09T08:50:32;99951.16;;;18.03;92.29
32789;BME280;19141;48.980;8.410;2022-09-09T08:53:27;99951.69;;;18.24;91.36
32789;BME280;19141;48.980;8.410;2022-09-09T08:55:59;99960.91;;;18.46;91.89
32789;BME280;19141;48.980;8.410;2022-09-09T08:58:49;99952.47;;;18.54;91.61
32789;BME280;19141;48.980;8.410;2022-09-09T09:07:31;99953.19;;;18.61;87.72
32789;BME280;19141;48.980;8.410;2022-09-09T09:12:46;99948.19;;;18.77;87.20
32789;BME280;19141;48.980;8.410;2022-09-09T09:15:25;99936.22;;;18.73;90.50
32789;BME280;19141;48.980;8.410;2022-09-09T09:17:53;99933.63;;;18.78;90.31
32789;BME280;19141;48.980;8.410;2022-09-09T09:20:27;99928.84;;;18.80;90.67
32789;BME280;19141;48.980;8.410;2022-09-09T09:23:00;99937.16;;;18.90;91.62
32789;BME280;19141;48.980;8.410;2022-09-09T09:25:31;99932.56;;;19.02;92.96
32789;BME280;19141;48.980;8.410;2022-09-09T09:28:01;99941.72;;;19.13;90.72
32789;BME280;19141;48.980;8.410;2022-09-09T09:30:38;99931.78;;;19.42;84.65
32789;BME280;19141;48.980;8.410;2022-09-09T09:36:07;99937.28;;;19.70;82.72
32789;BME280;19141;48.980;8.410;2022-09-09T09:38:35;99941.72;;;20.05;80.20
32789;BME280;19141;48.980;8.410;2022-09-09T09:41:01;99937.63;;;20.19;78.48
32789;BME280;19141;48.980;8.410;2022-09-09T09:43:35;99947.97;;;20.22;77.06
32789;BME280;19141;48.980;8.410;2022-09-09T09:46:16;99940.34;;;20.48;78.05
32789;BME280;19141;48.980;8.410;2022-09-09T09:48:43;99943.94;;;20.70;75.92
32789;BME280;19141;48.980;8.410;2022-09-09T09:51:12;99933.75;;;20.94;76.02
32789;BME280;19141;48.980;8.410;2022-09-09T09:53:42;99939.94;;;21.28;72.17
32789;BME280;19141;48.980;8.410;2022-09-09T09:56:11;99935.94;;;21.58;71.88
32789;BME280;19141;48.980;8.410;2022-09-09T10:01:23;99932.69;;;22.32;64.33
32789;BME280;19141;48.980;8.410;2022-09-09T10:03:56;99931.16;;;22.78;64.77
32789;BME280;19141;48.980;8.410;2022-09-09T10:06:34;99937.50;;;23.36;63.83
32789;BME280;19141;48.980;8.410;2022-09-09T10:09:01;99933.19;;;23.50;63.86
32789;BME280;19141;48.980;8.410;2022-09-09T10:12:03;99932.25;;;23.82;57.17
32789;BME280;19141;48.980;8.410;2022-09-09T10:17:20;99913.56;;;24.26;58.10
32789;BME280;19141;48.980;8.410;2022-09-09T10:22:33;99918.09;;;23.75;56.53
32789;BME280;19141;48.980;8.410;2022-09-09T10:25:27;99913.56;;;23.28;55.56
32789;BME280;19141;48.980;8.410;2022-09-09T10:36:24;99903.19;;;22.78;59.64
32789;BME280;19141;48.980;8.410;2022-09-09T10:39:05;99901.13;;;22.95;57.56
32789;BME280;19141;48.980;8.410;2022-09-09T10:42:05;99909.81;;;22.23;58.43
32789;BME280;19141;48.980;8.410;2022-09-09T10:47:26;99913.75;;;22.37;59.38
32789;BME280;19141;48.980;8.410;2022-09-09T10:50:19;99912.13;;;23.20;57.99
32789;BME280;19141;48.980;8.410;2022-09-09T10:55:41;99916.81;;;24.69;50.53
32789;BME280;19141;48.980;8.410;2022-09-09T10:58:12;99916.72;;;25.30;48.41
32789;BME280;19141;48.980;8.410;2022-09-09T11:01:09;99923.00;;;25.21;50.36
32789;BME280;19141;48.980;8.410;2022-09-09T11:03:29;99912.75;;;24.26;48.42
32789;BME280;19141;48.980;8.410;2022-09-09T11:06:04;99920.59;;;23.87;49.84
32789;BME280;19141;48.980;8.410;2022-09-09T11:08:31;99912.28;;;23.51;53.00
32789;BME280;19141;48.980;8.410;2022-09-09T11:11:21;99912.91;;;23.73;51.77
32789;BME280;19141;48.980;8.410;2022-09-09T11:16:29;99898.81;;;24.99;49.40
32789;BME280;19141;48.980;8.410;2022-09-09T11:19:10;99913.09;;;25.50;48.25
32789;BME280;19141;48.980;8.410;2022-09-09T11:21:47;99913.53;;;25.67;47.56
32789;BME280;19141;48.980;8.410;2022-09-09T11:24:37;99905.28;;;25.23;48.01
32789;BME280;19141;48.980;8.410;2022-09-09T11:27:19;99896.69;;;24.55;49.34
32789;BME280;19141;48.980;8.410;2022-09-09T11:32:59;99905.69;;;23.37;53.08
32789;BME280;19141;48.980;8.410;2022-09-09T11:35:40;99907.22;;;22.70;55.22
32789;BME280;19141;48.980;8.410;2022-09-09T11:40:43;99894.56;;;22.16;57.37
32789;BME280;19141;48.980;8.410;2022-09-09T11:43:10;99897.44;;;22.05;58.13
32789;BME280;19141;48.980;8.410;2022-09-09T11:45:39;99895.75;;;22.04;58.67
32789;BME280;19141;48.980;8.410;2022-09-09T11:48:23;99885.66;;;21.67;58.98
32789;BME280;19141;48.980;8.410;2022-09-09T11:51:09;99885.94;;;21.71;60.52
32789;BME280;19141;48.980;8.410;2022-09-09T11:53:47;99876.78;;;21.50;59.48
32789;BME280;19141;48.980;8.410;2022-09-09T11:56:32;99884.97;;;21.55;59.78
32789;BME280;19141;48.980;8.410;2022-09-09T11:59:20;99868.84;;;22.61;58.29
32789;BME280;19141;48.980;8.410;2022-09-09T12:01:49;99867.44;;;23.59;55.72
32789;BME280;19141;48.980;8.410;2022-09-09T12:06:58;99868.69;;;25.39;50.98
32789;BME280;19141;48.980;8.410;2022-09-09T12:09:45;99862.44;;;25.34;48.09
32789;BME280;19141;48.980;8.410;2022-09-09T12:14:55;99852.41;;;25.79;47.46
32789;BME280;19141;48.980;8.410;2022-09-09T12:17:23;99857.06;;;25.68;48.10
32789;BME280;19141;48.980;8.410;2022-09-09T12:20:22;99852.28;;;24.64;47.78
32789;BME280;19141;48.980;8.410;2022-09-09T12:25:34;99852.97;;;23.38;51.31
32789;BME280;19141;48.980;8.410;2022-09-09T12:28:10;99854.09;;;23.52;51.99
32789;BME280;19141;48.980;8.410;2022-09-09T12:33:11;99854.22;;;23.05;52.07
32789;BME280;19141;48.980;8.410;2022-09-09T12:35:38;99848.31;;;22.70;50.58
32789;BME280;19141;48.980;8.410;2022-09-09T12:38:05;99854.06;;;22.79;50.78
32789;BME280;19141;48.980;8.410;2022-09-09T12:40:33;99850.03;;;23.49;51.79
32789;BME280;19141;48.980;8.410;2022-09-09T12:43:01;99853.66;;;24.57;48.03
32789;BME280;19141;48.980;8.410;2022-09-09T12:45:32;99849.50;;;24.90;45.89
32789;BME280;19141;48.980;8.410;2022-09-09T12:48:00;99848.78;;;24.39;47.00
32789;BME280;19141;48.980;8.410;2022-09-09T12:50:33;99863.41;;;23.71;48.36
32789;BME280;19141;48.980;8.410;2022-09-09T12:53:27;99891.25;;;22.09;62.02
32789;BME280;19141;48.980;8.410;2022-09-09T12:56:00;99879.63;;;19.24;90.16
32789;BME280;19141;48.980;8.410;2022-09-09T12:58:28;99869.09;;;18.88;92.52
32789;BME280;19141;48.980;8.410;2022-09-09T13:00:59;99866.19;;;19.30;95.31
32789;BME280;19141;48.980;8.410;2022-09-09T13:03:25;99861.69;;;20.04;90.45
32789;BME280;19141;48.980;8.410;2022-09-09T13:05:52;99864.88;;;20.18;80.31
32789;BME280;19141;48.980;8.410;2022-09-09T13:08:19;99851.59;;;19.83;83.58
32789;BME280;19141;48.980;8.410;2022-09-09T13:10:51;99850.63;;;19.48;87.50
32789;BME280;19141;48.980;8.410;2022-09-09T13:13:28;99848.97;;;19.31;86.91
32789;BME280;19141;48.980;8.410;2022-09-09T13:15:59;99851.34;;;19.15;87.54
32789;BME280;19141;48.980;8.410;2022-09-09T13:18:31;99856.41;;;19.00;86.96
32789;BME280;19141;48.980;8.410;2022-09-09T13:20:59;99856.81;;;18.80;93.94
32789;BME280;19141;48.980;8.410;2022-09-09T13:23:31;99852.44;;;18.56;100.00
32789;BME280;19141;48.980;8.410;2022-09-09T13:26:02;99837.56;;;18.77;95.21
32789;BME280;19141;48.980;8.410;2022-09-09T13:28:30;99827.78;;;18.99;86.26
32789;BME280;19141;48.980;8.410;2022-09-09T13:31:00;99825.09;;;18.99;83.01
32789;BME280;19141;48.980;8.410;2022-09-09T13:33:34;99830.03;;;19.88;76.80
32789;BME280;19141;48.980;8.410;2022-09-09T13:36:06;99818.75;;;20.24;79.47
32789;BME280;19141;48.980;8.410;2022-09-09T13:38:38;99824.50;;;20.28;76.20
32789;BME280;19141;48.980;8.410;2022-09-09T13:41:08;99814.88;;;20.20;77.66
32789;BME280;19141;48.980;8.410;2022-09-09T13:43:44;99819.50;;;20.03;78.13
32789;BME280;19141;48.980;8.410;2022-09-09T13:46:38;99827.47;;;19.81;80.34
32789;BME280;19141;48.980;8.410;2022-09-09T13:51:47;99824.19;;;19.62;85.68
32789;BME280;19141;48.980;8.410;2022-09-09T13:54:18;99815.75;;;19.75;85.87
32789;BME280;19141;48.980;8.410;2022-09-09T13:56:44;99814.81;;;19.98;87.62
32789;BME280;19141;48.980;8.410;2022-09-09T13:59:18;99810.63;;;20.08;85.13
32789;BME280;19141;48.980;8.410;2022-09-09T14:01:45;99815.22;;;20.24;82.76
32789;BME280;19141;48.980;8.410;2022-09-09T14:04:11;99806.84;;;20.25;81.88
32789;BME280;19141;48.980;8.410;2022-09-09T14:06:37;99819.56;;;20.42;79.00
32789;BME280;19141;48.980;8.410;2022-09-09T14:09:04;99815.13;;;20.36;81.55
32789;BME280;19141;48.980;8.410;2022-09-09T14:11:30;99820.38;;;20.42;85.17
32789;BME280;19141;48.980;8.410;2022-09-09T14:13:55;99810.72;;;20.46;82.24
32789;BME280;19141;48.980;8.410;2022-09-09T14:16:21;99819.66;;;20.30;87.62
32789;BME280;19141;48.980;8.410;2022-09-09T14:18:47;99823.66;;;20.27;87.53
32789;BME280;19141;48.980;8.410;2022-09-09T14:21:13;99835.69;;;20.20;88.47
32789;BME280;19141;48.980;8.410;2022-09-09T14:23:39;99817.88;;;20.02;82.22
32789;BME280;19141;48.980;8.410;2022-09-09T14:26:06;99836.66;;;19.63;79.96
32789;BME280;19141;48.980;8.410;2022-09-09T14:28:31;99845.72;;;19.45;82.00
32789;BME280;19141;48.980;8.410;2022-09-09T14:30:59;99830.81;;;19.43;84.04
32789;BME280;19141;48.980;8.410;2022-09-09T14:33:26;99837.69;;;19.62;84.54
32789;BME280;19141;48.980;8.410;2022-09-09T14:36:02;99835.59;;;19.64;84.01
32789;BME280;19141;48.980;8.410;2022-09-09T14:38:33;99826.44;;;19.53;80.63
32789;BME280;19141;48.980;8.410;2022-09-09T14:41:02;99835.53;;;19.36;84.17
32789;BME280;19141;48.980;8.410;2022-09-09T14:43:29;99845.56;;;19.23;84.61
32789;BME280;19141;48.980;8.410;2022-09-09T14:45:55;99843.88;;;19.34;81.73
32789;BME280;19141;48.980;8.410;2022-09-09T14:48:21;99848.47;;;19.34;82.88
32789;BME280;19141;48.980;8.410;2022-09-09T14:50:46;99870.13;;;19.10;86.62
32789;BME280;19141;48.980;8.410;2022-09-09T14:53:11;99883.75;;;19.04;88.28
32789;BME280;19141;48.980;8.410;2022-09-09T14:55:37;99895.41;;;18.69;92.75
32789;BME280;19141;48.980;8.410;2022-09-09T14:58:04;99887.03;;;18.35;97.40
32789;BME280;19141;48.980;8.410;2022-09-09T15:00:30;99878.66;;;18.25;97.12
32789;BME280;19141;48.980;8.410;2022-09-09T15:02:56;99862.59;;;18.18;96.64
32789;BME280;19141;48.980;8.410;2022-09-09T15:05:22;99845.38;;;18.08;99.31
32789;BME280;19141;48.980;8.410;2022-09-09T15:07:47;99850.25;;;17.87;99.18
32789;BME280;19141;48.980;8.410;2022-09-09T15:10:16;99846.16;;;17.97;99.31
32789;BME280;19141;48.980;8.410;2022-09-09T15:12:42;99853.41;;;17.84;100.00
32789;BME280;19141;48.980;8.410;2022-09-09T15:15:08;99852.34;;;17.85;100.00
32789;BME280;19141;48.980;8.410;2022-09-09T15:17:34;99843.91;;;17.82;100.00
32789;BME280;19141;48.980;8.410;2022-09-09T15:20:03;99862.91;;;17.99;100.00
32789;BME280;19141;48.980;8.410;2022-09-09T15:22:28;99872.44;;;18.01;99.48
32789;BME280;19141;48.980;8.410;2022-09-09T15:24:53;99868.81;;;18.19;100.00
32789;BME280;19141;48.980;8.410;2022-09-09T15:27:19;99872.25;;;18.26;96.07
32789;BME280;19141;48.980;8.410;2022-09-09T15:29:44;99874.50;;;18.41;93.53
32789;BME280;19141;48.980;8.410;2022-09-09T15:32:10;99875.66;;;18.57;95.16
32789;BME280;19141;48.980;8.410;2022-09-09T15:34:35;99880.00;;;18.58;95.20
32789;BME280;19141;48.980;8.410;2022-09-09T15:37:00;99888.94;;;18.58;92.03
32789;BME280;19141;48.980;8.410;2022-09-09T15:39:26;99889.84;;;18.64;93.62
32789;BME280;19141;48.980;8.410;2022-09-09T15:41:52;99889.41;;;18.67;95.05
32789;BME280;19141;48.980;8.410;2022-09-09T15:44:17;99890.66;;;18.64;91.60
32789;BME280;19141;48.980;8.410;2022-09-09T15:49:14;99894.78;;;18.55;87.97
32789;BME280;19141;48.980;8.410;2022-09-09T15:51:42;99893.72;;;18.56;87.19
32789;BME280;19141;48.980;8.410;2022-09-09T15:54:08;99900.84;;;18.51;86.01
32789;BME280;19141;48.980;8.410;2022-09-09T15:56:34;99900.84;;;18.51;84.18
32789;BME280;19141;48.980;8.410;2022-09-09T15:59:00;99909.44;;;18.48;78.26
32789;BME280;19141;48.980;8.410;2022-09-09T16:01:28;99906.25;;;18.39;79.12
32789;BME280;19141;48.980;8.410;2022-09-09T16:03:55;99910.22;;;18.36;80.80
32789;BME280;19141;48.980;8.410;2022-09-09T16:06:23;99907.91;;;18.40;78.76
32789;BME280;19141;48.980;8.410;2022-09-09T16:08:50;99910.34;;;18.30;80.63
32789;BME280;19141;48.980;8.410;2022-09-09T16:11:25;99902.72;;;18.27;77.42
32789;BME280;19141;48.980;8.410;2022-09-09T16:13:52;99898.94;;;18.16;78.12
32789;BME280;19141;48.980;8.410;2022-09-09T16:16:21;99891.44;;;18.06;78.47
32789;BME280;19141;48.980;8.410;2022-09-09T16:18:53;99882.84;;;17.98;78.32
32789;BME280;19141;48.980;8.410;2022-09-09T16:21:25;99884.22;;;17.88;79.11
32789;BME280;19141;48.980;8.410;2022-09-09T16:23:52;99893.38;;;17.87;79.63
32789;BME280;19141;48.980;8.410;2022-09-09T16:26:18;99900.25;;;17.83;78.57
32789;BME280;19141;48.980;8.410;2022-09-09T16:28:44;99902.56;;;17.80;79.04
32789;BME280;19141;48.980;8.410;2022-09-09T16:31:17;99901.41;;;17.76;80.16
32789;BME280;19141;48.980;8.410;2022-09-09T16:33:43;99896.44;;;17.73;79.25
32789;BME280;19141;48.980;8.410;2022-09-09T16:36:11;99903.63;;;17.79;77.21
32789;BME280;19141;48.980;8.410;2022-09-09T16:38:37;99907.75;;;17.81;75.94
32789;BME280;19141;48.980;8.410;2022-09-09T16:41:04;99904.09;;;17.76;77.55
32789;BME280;19141;48.980;8.410;2022-09-09T16:43:31;99909.63;;;17.81;77.21
32789;BME280;19141;48.980;8.410;2022-09-09T16:45:57;99903.03;;;17.77;76.14
32789;BME280;19141;48.980;8.410;2022-09-09T16:48:23;99896.16;;;17.81;81.46
32789;BME280;19141;48.980;8.410;2022-09-09T16:50:48;99911.13;;;17.77;79.24
32789;BME280;19141;48.980;8.410;2022-09-09T16:53:14;99907.38;;;17.78;79.73
32789;BME280;19141;48.980;8.410;2022-09-09T16:55:41;99913.81;;;17.77;82.04
32789;BME280;19141;48.980;8.410;2022-09-09T16:58:07;99909.63;;;17.81;82.25
32789;BME280;19141;48.980;8.410;2022-09-09T17:00:35;99910.06;;;17.78;82.38
32789;BME280;19141;48.980;8.410;2022-09-09T17:03:00;99910.88;;;17.78;82.47
32789;BME280;19141;48.980;8.410;2022-09-09T17:05:26;99916.75;;;17.75;84.24
32789;BME280;19141;48.980;8.410;2022-09-09T17:07:51;99908.28;;;17.72;83.18
32789;BME280;19141;48.980;8.410;2022-09-09T17:10:17;99913.88;;;17.70;83.90
32789;BME280;19141;48.980;8.410;2022-09-09T17:12:42;99921.38;;;17.68;87.50
32789;BME280;19141;48.980;8.410;2022-09-09T17:15:08;99912.31;;;17.62;86.07
32789;BME280;19141;48.980;8.410;2022-09-09T17:17:34;99905.72;;;17.58;84.58
32789;BME280;19141;48.980;8.410;2022-09-09T17:20:00;99907.59;;;17.58;84.52
32789;BME280;19141;48.980;8.410;2022-09-09T17:22:27;99905.38;;;17.55;83.98
32789;BME280;19141;48.980;8.410;2022-09-09T17:24:52;99914.72;;;17.52;84.02
32789;BME280;19141;48.980;8.410;2022-09-09T17:27:17;99913.53;;;17.48;85.72
32789;BME280;19141;48.980;8.410;2022-09-09T17:29:43;99913.41;;;17.43;86.16
32789;BME280;19141;48.980;8.410;2022-09-09T17:32:08;99909.88;;;17.43;88.04
32789;BME280;19141;48.980;8.410;2022-09-09T17:34:35;99907.84;;;17.38;86.23
32789;BME280;19141;48.980;8.410;2022-09-09T17:37:01;99908.31;;;17.35;86.41
32789;BME280;19141;48.980;8.410;2022-09-09T17:39:27;99909.16;;;17.35;86.46
32789;BME280;19141;48.980;8.410;2022-09-09T17:41:53;99915.19;;;17.31;88.21
32789;BME280;19141;48.980;8.410;2022-09-09T17:44:19;99911.28;;;17.27;86.88
32789;BME280;19141;48.980;8.410;2022-09-09T17:46:45;99896.50;;;17.18;88.10
32789;BME280;19141;48.980;8.410;2022-09-09T17:49:14;99905.63;;;17.17;88.91
32789;BME280;19141;48.980;8.410;2022-09-09T17:51:41;99914.53;;;17.17;89.16
32789;BME280;19141;48.980;8.410;2022-09-09T17:54:10;99918.28;;;17.16;90.53
32789;BME280;19141;48.980;8.410;2022-09-09T17:56:36;99922.50;;;17.05;90.27
32789;BME280;19141;48.980;8.410;2022-09-09T17:59:04;99915.91;;;17.01;90.46
32789;BME280;19141;48.980;8.410;2022-09-09T18:01:36;99912.47;;;16.94;90.79
32789;BME280;19141;48.980;8.410;2022-09-09T18:04:05;99918.56;;;16.90;91.82
32789;BME280;19141;48.980;8.410;2022-09-09T18:06:35;99916.59;;;16.78;92.39
32789;BME280;19141;48.980;8.410;2022-09-09T18:09:09;99916.19;;;16.75;92.38
32789;BME280;19141;48.980;8.410;2022-09-09T18:11:40;99917.47;;;16.72;93.61
32789;BME280;19141;48.980;8.410;2022-09-09T18:14:09;99914.56;;;16.67;93.02
32789;BME280;19141;48.980;8.410;2022-09-09T18:16:36;99928.25;;;16.66;93.60
32789;BME280;19141;48.980;8.410;2022-09-09T18:19:06;99934.50;;;16.60;94.39
32789;BME280;19141;48.980;8.410;2022-09-09T18:21:34;99940.09;;;16.58;94.49
32789;BME280;19141;48.980;8.410;2022-09-09T18:24:02;99929.59;;;16.57;94.90
32789;BME280;19141;48.980;8.410;2022-09-09T18:26:29;99937.47;;;16.51;94.46
32789;BME280;19141;48.980;8.410;2022-09-09T18:28:59;99936.72;;;16.44;93.74
32789;BME280;19141;48.980;8.410;2022-09-09T18:31:27;99933.78;;;16.46;93.85
32789;BME280;19141;48.980;8.410;2022-09-09T18:33:53;99928.03;;;16.42;93.40